sensor_id;sensor_type;location;lat;lon;timestamp;P1;durP1;ratioP1;P2;durP2;ratioP2
54406;SDS011;40313;50.308;30.374;2022-09-04T00:00:07;12.77;;;11.77;;
54406;SDS011;40313;50.308;30.374;2022-09-04T00:02:49;13.85;;;10.98;;
54406;SDS011;40313;50.308;30.374;2022-09-04T00:05:28;13.02;;;10.75;;
54406;SDS011;40313;50.308;30.374;2022-09-04T00:10:39;13.18;;;11.80;;
54406;SDS011;40313;50.308;30.374;2022-09-04T00:13:14;20.20;;;12.70;;
54406;SDS011;40313;50.308;30.374;2022-09-04T00:15:47;14.27;;;12.43;;
54406;SDS011;40313;50.308;30.374;2022-09-04T00:18:19;23.33;;;13.88;;
54406;SDS011;40313;50.308;30.374;2022-09-04T00:20:53;21.52;;;14.98;;
54406;SDS011;40313;50.308;30.374;2022-09-04T00:23:28;17.02;;;13.93;;
54406;SDS011;40313;50.308;30.374;2022-09-04T00:26:05;16.45;;;14.82;;
54406;SDS011;40313;50.308;30.374;2022-09-04T00:28:40;18.58;;;16.58;;
54406;SDS011;40313;50.308;30.374;2022-09-04T00:31:12;16.58;;;14.52;;
54406;SDS011;40313;50.308;30.374;2022-09-04T00:33:46;20.52;;;14.95;;
54406;SDS011;40313;50.308;30.374;2022-09-04T00:36:21;26.20;;;14.00;;
54406;SDS011;40313;50.308;30.374;2022-09-04T00:38:52;18.90;;;13.32;;
54406;SDS011;40313;50.308;30.374;2022-09-04T00:41:24;20.55;;;15.48;;
54406;SDS011;40313;50.308;30.374;2022-09-04T00:43:59;23.50;;;15.40;;
54406;SDS011;40313;50.308;30.374;2022-09-04T00:47:00;19.38;;;15.32;;
54406;SDS011;40313;50.308;30.374;2022-09-04T00:55:33;22.00;;;15.27;;
54406;SDS011;40313;50.308;30.374;2022-09-04T00:58:16;21.38;;;14.35;;
54406;SDS011;40313;50.308;30.374;2022-09-04T01:00:52;22.67;;;14.10;;
54406;SDS011;40313;50.308;30.374;2022-09-04T01:03:29;20.20;;;14.38;;
54406;SDS011;40313;50.308;30.374;2022-09-04T01:06:15;20.80;;;14.13;;
54406;SDS011;40313;50.308;30.374;2022-09-04T01:08:55;20.95;;;13.85;;
54406;SDS011;40313;50.308;30.374;2022-09-04T01:11:34;16.10;;;13.65;;
54406;SDS011;40313;50.308;30.374;2022-09-04T01:14:17;23.20;;;14.83;;
54406;SDS011;40313;50.308;30.374;2022-09-04T01:16:56;20.95;;;14.98;;
54406;SDS011;40313;50.308;30.374;2022-09-04T01:19:36;19.48;;;14.75;;
54406;SDS011;40313;50.308;30.374;2022-09-04T01:22:15;22.92;;;15.93;;
54406;SDS011;40313;50.308;30.374;2022-09-04T01:25:04;26.35;;;14.13;;
54406;SDS011;40313;50.308;30.374;2022-09-04T01:27:45;18.00;;;14.82;;
54406;SDS011;40313;50.308;30.374;2022-09-04T01:30:19;26.83;;;15.20;;
54406;SDS011;40313;50.308;30.374;2022-09-04T01:32:52;18.95;;;15.27;;
54406;SDS011;40313;50.308;30.374;2022-09-04T01:35:28;18.45;;;15.80;;
54406;SDS011;40313;50.308;30.374;2022-09-04T01:38:05;25.02;;;15.43;;
54406;SDS011;40313;50.308;30.374;2022-09-04T01:40:40;26.75;;;17.15;;
54406;SDS011;40313;50.308;30.374;2022-09-04T01:43:11;28.42;;;16.73;;
54406;SDS011;40313;50.308;30.374;2022-09-04T01:45:44;29.67;;;15.77;;
54406;SDS011;40313;50.308;30.374;2022-09-04T01:48:26;18.65;;;14.70;;
54406;SDS011;40313;50.308;30.374;2022-09-04T01:51:04;24.27;;;16.48;;
54406;SDS011;40313;50.308;30.374;2022-09-04T01:53:39;23.63;;;15.82;;
54406;SDS011;40313;50.308;30.374;2022-09-04T01:56:11;21.70;;;16.05;;
54406;SDS011;40313;50.308;30.374;2022-09-04T02:01:14;21.35;;;14.85;;
54406;SDS011;40313;50.308;30.374;2022-09-04T02:03:49;30.73;;;17.02;;
54406;SDS011;40313;50.308;30.374;2022-09-04T02:06:26;24.67;;;17.25;;
54406;SDS011;40313;50.308;30.374;2022-09-04T02:09:01;28.55;;;17.92;;
54406;SDS011;40313;50.308;30.374;2022-09-04T02:11:39;23.13;;;18.40;;
54406;SDS011;40313;50.308;30.374;2022-09-04T02:14:25;22.83;;;16.88;;
54406;SDS011;40313;50.308;30.374;2022-09-04T02:17:05;28.83;;;17.47;;
54406;SDS011;40313;50.308;30.374;2022-09-04T02:19:36;21.90;;;16.48;;
54406;SDS011;40313;50.308;30.374;2022-09-04T02:22:15;32.70;;;17.40;;
54406;SDS011;40313;50.308;30.374;2022-09-04T02:24:50;27.52;;;16.00;;
54406;SDS011;40313;50.308;30.374;2022-09-04T02:27:27;21.40;;;15.73;;
54406;SDS011;40313;50.308;30.374;2022-09-04T02:30:02;27.92;;;16.45;;
54406;SDS011;40313;50.308;30.374;2022-09-04T02:32:33;28.25;;;19.98;;
54406;SDS011;40313;50.308;30.374;2022-09-04T02:35:06;28.83;;;18.58;;
54406;SDS011;40313;50.308;30.374;2022-09-04T02:37:44;21.20;;;17.40;;
54406;SDS011;40313;50.308;30.374;2022-09-04T02:40:23;19.52;;;16.13;;
54406;SDS011;40313;50.308;30.374;2022-09-04T02:43:00;31.27;;;18.85;;
54406;SDS011;40313;50.308;30.374;2022-09-04T02:45:41;32.80;;;19.63;;
54406;SDS011;40313;50.308;30.374;2022-09-04T02:48:13;25.23;;;19.98;;
54406;SDS011;40313;50.308;30.374;2022-09-04T02:50:52;32.83;;;20.13;;
54406;SDS011;40313;50.308;30.374;2022-09-04T02:53:32;34.42;;;19.50;;
54406;SDS011;40313;50.308;30.374;2022-09-04T02:58:41;28.95;;;18.52;;
54406;SDS011;40313;50.308;30.374;2022-09-04T03:01:21;32.15;;;19.05;;
54406;SDS011;40313;50.308;30.374;2022-09-04T03:03:54;23.70;;;17.50;;
54406;SDS011;40313;50.308;30.374;2022-09-04T03:06:29;23.40;;;18.77;;
54406;SDS011;40313;50.308;30.374;2022-09-04T03:09:09;25.60;;;18.77;;
54406;SDS011;40313;50.308;30.374;2022-09-04T03:11:41;29.48;;;17.50;;
54406;SDS011;40313;50.308;30.374;2022-09-04T03:14:14;21.10;;;16.90;;
54406;SDS011;40313;50.308;30.374;2022-09-04T03:16:46;35.55;;;19.10;;
54406;SDS011;40313;50.308;30.374;2022-09-04T03:19:19;28.60;;;17.47;;
54406;SDS011;40313;50.308;30.374;2022-09-04T03:21:54;26.48;;;18.55;;
54406;SDS011;40313;50.308;30.374;2022-09-04T03:24:27;28.13;;;17.60;;
54406;SDS011;40313;50.308;30.374;2022-09-04T03:26:58;23.60;;;17.38;;
54406;SDS011;40313;50.308;30.374;2022-09-04T03:29:30;29.20;;;16.65;;
54406;SDS011;40313;50.308;30.374;2022-09-04T03:32:06;21.00;;;18.05;;
54406;SDS011;40313;50.308;30.374;2022-09-04T03:34:40;30.42;;;18.08;;
54406;SDS011;40313;50.308;30.374;2022-09-04T03:37:20;28.13;;;16.80;;
54406;SDS011;40313;50.308;30.374;2022-09-04T03:40:04;21.20;;;16.50;;
54406;SDS011;40313;50.308;30.374;2022-09-04T03:42:45;29.85;;;19.73;;
54406;SDS011;40313;50.308;30.374;2022-09-04T03:45:27;39.47;;;19.17;;
54406;SDS011;40313;50.308;30.374;2022-09-04T03:48:10;28.63;;;18.98;;
54406;SDS011;40313;50.308;30.374;2022-09-04T03:50:46;34.78;;;17.80;;
54406;SDS011;40313;50.308;30.374;2022-09-04T03:53:24;31.48;;;18.52;;
54406;SDS011;40313;50.308;30.374;2022-09-04T03:59:10;31.92;;;17.73;;
54406;SDS011;40313;50.308;30.374;2022-09-04T04:01:46;33.75;;;16.77;;
54406;SDS011;40313;50.308;30.374;2022-09-04T04:04:45;26.30;;;16.63;;
54406;SDS011;40313;50.308;30.374;2022-09-04T04:07:33;33.22;;;18.80;;
54406;SDS011;40313;50.308;30.374;2022-09-04T04:10:14;29.83;;;18.15;;
54406;SDS011;40313;50.308;30.374;2022-09-04T04:12:54;22.52;;;17.90;;
54406;SDS011;40313;50.308;30.374;2022-09-04T04:15:48;27.48;;;16.67;;
54406;SDS011;40313;50.308;30.374;2022-09-04T04:18:38;18.77;;;15.63;;
54406;SDS011;40313;50.308;30.374;2022-09-04T04:21:40;31.17;;;16.00;;
54406;SDS011;40313;50.308;30.374;2022-09-04T04:24:24;28.25;;;15.13;;
54406;SDS011;40313;50.308;30.374;2022-09-04T04:27:09;16.63;;;14.93;;
54406;SDS011;40313;50.308;30.374;2022-09-04T04:29:59;24.05;;;14.02;;
54406;SDS011;40313;50.308;30.374;2022-09-04T04:35:34;15.98;;;14.32;;
54406;SDS011;40313;50.308;30.374;2022-09-04T04:38:16;16.98;;;14.82;;
54406;SDS011;40313;50.308;30.374;2022-09-04T04:41:08;27.35;;;17.20;;
54406;SDS011;40313;50.308;30.374;2022-09-04T04:43:49;23.77;;;15.65;;
54406;SDS011;40313;50.308;30.374;2022-09-04T04:46:27;16.17;;;14.57;;
54406;SDS011;40313;50.308;30.374;2022-09-04T04:52:02;19.38;;;13.68;;
54406;SDS011;40313;50.308;30.374;2022-09-04T04:54:51;17.30;;;15.40;;
54406;SDS011;40313;50.308;30.374;2022-09-04T04:57:31;17.77;;;13.15;;
54406;SDS011;40313;50.308;30.374;2022-09-04T05:00:05;15.50;;;13.63;;
54406;SDS011;40313;50.308;30.374;2022-09-04T05:02:38;22.17;;;15.15;;
54406;SDS011;40313;50.308;30.374;2022-09-04T05:05:16;27.30;;;14.77;;
54406;SDS011;40313;50.308;30.374;2022-09-04T05:07:49;14.95;;;13.40;;
54406;SDS011;40313;50.308;30.374;2022-09-04T05:10:28;15.23;;;13.77;;
54406;SDS011;40313;50.308;30.374;2022-09-04T05:13:01;23.35;;;14.75;;
54406;SDS011;40313;50.308;30.374;2022-09-04T05:15:39;18.77;;;14.63;;
54406;SDS011;40313;50.308;30.374;2022-09-04T05:18:13;17.45;;;13.60;;
54406;SDS011;40313;50.308;30.374;2022-09-04T05:20:49;17.83;;;12.70;;
54406;SDS011;40313;50.308;30.374;2022-09-04T05:23:23;22.02;;;12.57;;
54406;SDS011;40313;50.308;30.374;2022-09-04T05:25:59;17.60;;;12.45;;
54406;SDS011;40313;50.308;30.374;2022-09-04T05:28:34;15.65;;;14.18;;
54406;SDS011;40313;50.308;30.374;2022-09-04T05:31:12;27.95;;;15.32;;
54406;SDS011;40313;50.308;30.374;2022-09-04T05:33:48;16.02;;;13.25;;
54406;SDS011;40313;50.308;30.374;2022-09-04T05:36:23;17.33;;;13.23;;
54406;SDS011;40313;50.308;30.374;2022-09-04T05:39:03;17.50;;;14.60;;
54406;SDS011;40313;50.308;30.374;2022-09-04T05:41:36;15.10;;;12.55;;
54406;SDS011;40313;50.308;30.374;2022-09-04T05:44:25;18.50;;;12.40;;
54406;SDS011;40313;50.308;30.374;2022-09-04T05:47:04;13.07;;;10.38;;
54406;SDS011;40313;50.308;30.374;2022-09-04T05:49:49;17.52;;;10.30;;
54406;SDS011;40313;50.308;30.374;2022-09-04T05:52:41;10.80;;;9.70;;
54406;SDS011;40313;50.308;30.374;2022-09-04T05:55:25;13.00;;;9.90;;
54406;SDS011;40313;50.308;30.374;2022-09-04T05:58:06;10.00;;;8.95;;
54406;SDS011;40313;50.308;30.374;2022-09-04T06:00:49;13.73;;;7.35;;
54406;SDS011;40313;50.308;30.374;2022-09-04T06:03:31;12.32;;;8.35;;
54406;SDS011;40313;50.308;30.374;2022-09-04T06:06:19;15.07;;;8.50;;
54406;SDS011;40313;50.308;30.374;2022-09-04T06:11:53;14.75;;;6.53;;
54406;SDS011;40313;50.308;30.374;2022-09-04T06:14:45;12.15;;;6.75;;
54406;SDS011;40313;50.308;30.374;2022-09-04T06:17:34;21.73;;;6.07;;
54406;SDS011;40313;50.308;30.374;2022-09-04T06:20:24;9.63;;;3.97;;
54406;SDS011;40313;50.308;30.374;2022-09-04T06:26:02;3.97;;;3.50;;
54406;SDS011;40313;50.308;30.374;2022-09-04T06:34:47;7.88;;;4.20;;
54406;SDS011;40313;50.308;30.374;2022-09-04T06:37:34;4.55;;;3.50;;
54406;SDS011;40313;50.308;30.374;2022-09-04T06:40:12;6.63;;;4.93;;
54406;SDS011;40313;50.308;30.374;2022-09-04T06:42:54;9.40;;;4.53;;
54406;SDS011;40313;50.308;30.374;2022-09-04T06:45:34;4.00;;;3.72;;
54406;SDS011;40313;50.308;30.374;2022-09-04T06:48:15;6.68;;;3.45;;
54406;SDS011;40313;50.308;30.374;2022-09-04T06:50:52;8.60;;;4.00;;
54406;SDS011;40313;50.308;30.374;2022-09-04T06:53:33;11.75;;;3.45;;
54406;SDS011;40313;50.308;30.374;2022-09-04T06:56:14;7.45;;;4.75;;
54406;SDS011;40313;50.308;30.374;2022-09-04T06:58:56;7.30;;;4.22;;
54406;SDS011;40313;50.308;30.374;2022-09-04T07:01:38;7.30;;;3.42;;
54406;SDS011;40313;50.308;30.374;2022-09-04T07:04:21;14.23;;;2.97;;
54406;SDS011;40313;50.308;30.374;2022-09-04T07:06:57;4.50;;;2.67;;
54406;SDS011;40313;50.308;30.374;2022-09-04T07:09:31;5.68;;;2.63;;
54406;SDS011;40313;50.308;30.374;2022-09-04T07:12:16;2.35;;;2.15;;
54406;SDS011;40313;50.308;30.374;2022-09-04T07:15:10;16.63;;;3.10;;
54406;SDS011;40313;50.308;30.374;2022-09-04T07:17:55;8.13;;;2.30;;
54406;SDS011;40313;50.308;30.374;2022-09-04T07:20:28;3.17;;;2.65;;
54406;SDS011;40313;50.308;30.374;2022-09-04T07:23:01;2.45;;;2.28;;
54406;SDS011;40313;50.308;30.374;2022-09-04T07:25:44;8.68;;;2.10;;
54406;SDS011;40313;50.308;30.374;2022-09-04T07:28:21;3.03;;;2.53;;
54406;SDS011;40313;50.308;30.374;2022-09-04T07:31:00;3.22;;;2.22;;
54406;SDS011;40313;50.308;30.374;2022-09-04T07:33:34;7.68;;;2.00;;
54406;SDS011;40313;50.308;30.374;2022-09-04T07:36:10;2.10;;;1.55;;
54406;SDS011;40313;50.308;30.374;2022-09-04T07:38:42;1.45;;;1.30;;
54406;SDS011;40313;50.308;30.374;2022-09-04T07:41:17;3.78;;;1.88;;
54406;SDS011;40313;50.308;30.374;2022-09-04T07:43:51;1.95;;;1.73;;
54406;SDS011;40313;50.308;30.374;2022-09-04T07:46:28;8.43;;;2.00;;
54406;SDS011;40313;50.308;30.374;2022-09-04T07:49:03;5.95;;;1.40;;
54406;SDS011;40313;50.308;30.374;2022-09-04T07:51:44;4.88;;;1.38;;
54406;SDS011;40313;50.308;30.374;2022-09-04T07:54:36;4.30;;;1.60;;
54406;SDS011;40313;50.308;30.374;2022-09-04T07:57:37;1.83;;;1.70;;
54406;SDS011;40313;50.308;30.374;2022-09-04T08:00:26;1.92;;;1.33;;
54406;SDS011;40313;50.308;30.374;2022-09-04T08:03:07;12.45;;;1.17;;
54406;SDS011;40313;50.308;30.374;2022-09-04T08:05:56;3.03;;;1.40;;
54406;SDS011;40313;50.308;30.374;2022-09-04T08:08:51;2.38;;;1.20;;
54406;SDS011;40313;50.308;30.374;2022-09-04T08:17:21;1.55;;;1.05;;
54406;SDS011;40313;50.308;30.374;2022-09-04T08:20:10;4.70;;;0.70;;
54406;SDS011;40313;50.308;30.374;2022-09-04T08:22:49;0.90;;;0.88;;
54406;SDS011;40313;50.308;30.374;2022-09-04T08:25:26;0.77;;;0.77;;
54406;SDS011;40313;50.308;30.374;2022-09-04T08:28:06;12.43;;;0.80;;
54406;SDS011;40313;50.308;30.374;2022-09-04T08:30:45;2.67;;;1.00;;
54406;SDS011;40313;50.308;30.374;2022-09-04T08:33:30;5.30;;;1.27;;
54406;SDS011;40313;50.308;30.374;2022-09-04T08:36:14;5.47;;;0.80;;
54406;SDS011;40313;50.308;30.374;2022-09-04T08:38:51;4.78;;;1.10;;
54406;SDS011;40313;50.308;30.374;2022-09-04T08:41:37;6.30;;;0.93;;
54406;SDS011;40313;50.308;30.374;2022-09-04T08:47:58;2.65;;;1.10;;
54406;SDS011;40313;50.308;30.374;2022-09-04T08:50:47;1.95;;;1.80;;
54406;SDS011;40313;50.308;30.374;2022-09-04T08:56:38;2.10;;;1.40;;
54406;SDS011;40313;50.308;30.374;2022-09-04T09:02:18;4.93;;;1.15;;
54406;SDS011;40313;50.308;30.374;2022-09-04T09:14:21;2.10;;;1.42;;
54406;SDS011;40313;50.308;30.374;2022-09-04T09:17:10;1.55;;;1.40;;
54406;SDS011;40313;50.308;30.374;2022-09-04T09:19:44;4.15;;;1.67;;
54406;SDS011;40313;50.308;30.374;2022-09-04T09:25:04;5.53;;;1.25;;
54406;SDS011;40313;50.308;30.374;2022-09-04T09:34:01;1.80;;;1.70;;
54406;SDS011;40313;50.308;30.374;2022-09-04T09:37:12;2.97;;;1.45;;
54406;SDS011;40313;50.308;30.374;2022-09-04T09:40:14;1.60;;;1.50;;
54406;SDS011;40313;50.308;30.374;2022-09-04T09:43:14;1.80;;;1.70;;
54406;SDS011;40313;50.308;30.374;2022-09-04T09:46:00;6.55;;;2.58;;
54406;SDS011;40313;50.308;30.374;2022-09-04T09:52:22;7.63;;;0.90;;
54406;SDS011;40313;50.308;30.374;2022-09-04T10:01:30;1.10;;;1.00;;
54406;SDS011;40313;50.308;30.374;2022-09-04T10:04:25;6.35;;;0.82;;
54406;SDS011;40313;50.308;30.374;2022-09-04T10:10:22;4.05;;;0.80;;
54406;SDS011;40313;50.308;30.374;2022-09-04T10:13:19;13.45;;;0.82;;
54406;SDS011;40313;50.308;30.374;2022-09-04T10:19:15;6.90;;;1.00;;
54406;SDS011;40313;50.308;30.374;2022-09-04T10:25:16;4.20;;;1.13;;
54406;SDS011;40313;50.308;30.374;2022-09-04T10:28:08;7.55;;;1.00;;
54406;SDS011;40313;50.308;30.374;2022-09-04T10:31:01;22.85;;;6.75;;
54406;SDS011;40313;50.308;30.374;2022-09-04T10:33:57;5.95;;;1.52;;
54406;SDS011;40313;50.308;30.374;2022-09-04T10:36:38;12.23;;;3.75;;
54406;SDS011;40313;50.308;30.374;2022-09-04T10:39:15;3.10;;;0.98;;
54406;SDS011;40313;50.308;30.374;2022-09-04T10:42:08;77.32;;;10.25;;
54406;SDS011;40313;50.308;30.374;2022-09-04T10:44:43;2.38;;;1.65;;
54406;SDS011;40313;50.308;30.374;2022-09-04T10:47:19;5.85;;;1.10;;
54406;SDS011;40313;50.308;30.374;2022-09-04T10:49:59;7.05;;;1.58;;
54406;SDS011;40313;50.308;30.374;2022-09-04T10:52:45;10.75;;;1.42;;
54406;SDS011;40313;50.308;30.374;2022-09-04T10:55:31;1.05;;;1.00;;
54406;SDS011;40313;50.308;30.374;2022-09-04T10:58:27;5.30;;;1.02;;
54406;SDS011;40313;50.308;30.374;2022-09-04T11:01:12;1.77;;;1.00;;
54406;SDS011;40313;50.308;30.374;2022-09-04T11:03:59;4.45;;;0.80;;
54406;SDS011;40313;50.308;30.374;2022-09-04T11:06:47;1.33;;;0.98;;
54406;SDS011;40313;50.308;30.374;2022-09-04T11:09:39;1.85;;;0.98;;
54406;SDS011;40313;50.308;30.374;2022-09-04T11:12:23;6.18;;;0.98;;
54406;SDS011;40313;50.308;30.374;2022-09-04T11:15:04;1.15;;;1.05;;
54406;SDS011;40313;50.308;30.374;2022-09-04T11:17:53;1.95;;;1.20;;
54406;SDS011;40313;50.308;30.374;2022-09-04T11:30:25;4.45;;;0.98;;
54406;SDS011;40313;50.308;30.374;2022-09-04T11:36:07;1.13;;;0.80;;
54406;SDS011;40313;50.308;30.374;2022-09-04T11:39:13;6.82;;;1.45;;
54406;SDS011;40313;50.308;30.374;2022-09-04T11:42:28;11.75;;;1.13;;
54406;SDS011;40313;50.308;30.374;2022-09-04T11:45:10;11.70;;;1.13;;
54406;SDS011;40313;50.308;30.374;2022-09-04T11:57:21;0.93;;;0.70;;
54406;SDS011;40313;50.308;30.374;2022-09-04T12:00:03;2.13;;;1.05;;
54406;SDS011;40313;50.308;30.374;2022-09-04T12:02:38;2.35;;;0.88;;
54406;SDS011;40313;50.308;30.374;2022-09-04T12:05:35;1.15;;;0.85;;
54406;SDS011;40313;50.308;30.374;2022-09-04T12:08:28;1.83;;;0.75;;
54406;SDS011;40313;50.308;30.374;2022-09-04T12:11:34;4.43;;;1.23;;
54406;SDS011;40313;50.308;30.374;2022-09-04T12:14:20;11.38;;;1.10;;
54406;SDS011;40313;50.308;30.374;2022-09-04T12:17:14;2.63;;;1.00;;
54406;SDS011;40313;50.308;30.374;2022-09-04T12:20:17;0.93;;;0.82;;
54406;SDS011;40313;50.308;30.374;2022-09-04T12:23:21;8.75;;;1.02;;
54406;SDS011;40313;50.308;30.374;2022-09-04T12:26:19;0.75;;;0.70;;
54406;SDS011;40313;50.308;30.374;2022-09-04T12:29:05;3.97;;;1.35;;
54406;SDS011;40313;50.308;30.374;2022-09-04T12:32:01;1.48;;;1.27;;
54406;SDS011;40313;50.308;30.374;2022-09-04T12:34:54;1.10;;;1.00;;
54406;SDS011;40313;50.308;30.374;2022-09-04T12:37:45;2.55;;;0.95;;
54406;SDS011;40313;50.308;30.374;2022-09-04T12:40:30;0.90;;;0.75;;
54406;SDS011;40313;50.308;30.374;2022-09-04T12:45:50;1.63;;;0.93;;
54406;SDS011;40313;50.308;30.374;2022-09-04T12:48:27;2.97;;;2.28;;
54406;SDS011;40313;50.308;30.374;2022-09-04T12:51:03;1.65;;;1.08;;
54406;SDS011;40313;50.308;30.374;2022-09-04T12:53:47;2.88;;;2.75;;
54406;SDS011;40313;50.308;30.374;2022-09-04T12:56:30;4.10;;;3.17;;
54406;SDS011;40313;50.308;30.374;2022-09-04T12:59:11;7.18;;;1.50;;
54406;SDS011;40313;50.308;30.374;2022-09-04T13:01:52;6.82;;;1.92;;
54406;SDS011;40313;50.308;30.374;2022-09-04T13:04:28;2.53;;;0.98;;
54406;SDS011;40313;50.308;30.374;2022-09-04T13:07:08;5.05;;;0.90;;
54406;SDS011;40313;50.308;30.374;2022-09-04T13:09:53;5.38;;;1.00;;
54406;SDS011;40313;50.308;30.374;2022-09-04T13:12:26;12.50;;;1.20;;
54406;SDS011;40313;50.308;30.374;2022-09-04T13:17:53;1.88;;;1.08;;
54406;SDS011;40313;50.308;30.374;2022-09-04T13:20:33;2.88;;;0.88;;
54406;SDS011;40313;50.308;30.374;2022-09-04T13:23:21;2.25;;;0.80;;
54406;SDS011;40313;50.308;30.374;2022-09-04T13:26:07;1.58;;;0.95;;
54406;SDS011;40313;50.308;30.374;2022-09-04T13:28:47;3.63;;;0.90;;
54406;SDS011;40313;50.308;30.374;2022-09-04T13:31:31;2.72;;;2.53;;
54406;SDS011;40313;50.308;30.374;2022-09-04T13:34:11;1.15;;;0.77;;
54406;SDS011;40313;50.308;30.374;2022-09-04T13:36:46;1.77;;;1.58;;
54406;SDS011;40313;50.308;30.374;2022-09-04T13:42:36;1.02;;;1.00;;
54406;SDS011;40313;50.308;30.374;2022-09-04T13:45:23;2.03;;;1.10;;
54406;SDS011;40313;50.308;30.374;2022-09-04T13:47:53;5.97;;;1.10;;
54406;SDS011;40313;50.308;30.374;2022-09-04T13:50:24;5.93;;;1.08;;
54406;SDS011;40313;50.308;30.374;2022-09-04T13:52:58;3.10;;;1.95;;
54406;SDS011;40313;50.308;30.374;2022-09-04T13:55:36;2.38;;;2.15;;
54406;SDS011;40313;50.308;30.374;2022-09-04T13:58:06;1.33;;;1.23;;
54406;SDS011;40313;50.308;30.374;2022-09-04T14:00:39;1.08;;;0.98;;
54406;SDS011;40313;50.308;30.374;2022-09-04T14:03:11;2.25;;;1.08;;
54406;SDS011;40313;50.308;30.374;2022-09-04T14:05:46;4.57;;;1.73;;
54406;SDS011;40313;50.308;30.374;2022-09-04T14:08:14;1.30;;;0.80;;
54406;SDS011;40313;50.308;30.374;2022-09-04T14:10:53;4.10;;;0.90;;
54406;SDS011;40313;50.308;30.374;2022-09-04T14:13:33;7.85;;;1.10;;
54406;SDS011;40313;50.308;30.374;2022-09-04T14:16:16;3.08;;;1.15;;
54406;SDS011;40313;50.308;30.374;2022-09-04T14:18:53;8.02;;;1.90;;
54406;SDS011;40313;50.308;30.374;2022-09-04T14:21:43;3.75;;;3.22;;
54406;SDS011;40313;50.308;30.374;2022-09-04T14:24:30;1.77;;;0.90;;
54406;SDS011;40313;50.308;30.374;2022-09-04T14:27:03;7.22;;;4.10;;
54406;SDS011;40313;50.308;30.374;2022-09-04T14:29:42;9.13;;;3.60;;
54406;SDS011;40313;50.308;30.374;2022-09-04T14:32:19;0.98;;;0.85;;
54406;SDS011;40313;50.308;30.374;2022-09-04T14:34:52;4.75;;;0.88;;
54406;SDS011;40313;50.308;30.374;2022-09-04T14:37:34;6.20;;;0.95;;
54406;SDS011;40313;50.308;30.374;2022-09-04T14:40:18;4.43;;;0.90;;
54406;SDS011;40313;50.308;30.374;2022-09-04T14:42:46;3.08;;;1.27;;
54406;SDS011;40313;50.308;30.374;2022-09-04T14:45:24;1.90;;;1.63;;
54406;SDS011;40313;50.308;30.374;2022-09-04T14:47:59;2.80;;;1.02;;
54406;SDS011;40313;50.308;30.374;2022-09-04T14:50:29;1.88;;;1.40;;
54406;SDS011;40313;50.308;30.374;2022-09-04T14:52:59;5.15;;;1.02;;
54406;SDS011;40313;50.308;30.374;2022-09-04T14:55:31;6.85;;;1.00;;
54406;SDS011;40313;50.308;30.374;2022-09-04T14:58:01;7.00;;;0.93;;
54406;SDS011;40313;50.308;30.374;2022-09-04T15:00:48;3.35;;;1.30;;
54406;SDS011;40313;50.308;30.374;2022-09-04T15:03:21;7.28;;;1.55;;
54406;SDS011;40313;50.308;30.374;2022-09-04T15:05:52;5.95;;;1.30;;
54406;SDS011;40313;50.308;30.374;2022-09-04T15:08:26;2.22;;;1.85;;
54406;SDS011;40313;50.308;30.374;2022-09-04T15:10:55;1.40;;;1.17;;
54406;SDS011;40313;50.308;30.374;2022-09-04T15:16:19;2.53;;;0.70;;
54406;SDS011;40313;50.308;30.374;2022-09-04T15:18:56;2.08;;;1.10;;
54406;SDS011;40313;50.308;30.374;2022-09-04T15:21:32;5.00;;;1.02;;
54406;SDS011;40313;50.308;30.374;2022-09-04T15:24:15;4.43;;;1.52;;
54406;SDS011;40313;50.308;30.374;2022-09-04T15:26:49;1.85;;;1.58;;
54406;SDS011;40313;50.308;30.374;2022-09-04T15:29:22;7.60;;;1.67;;
54406;SDS011;40313;50.308;30.374;2022-09-04T15:31:59;1.55;;;1.10;;
54406;SDS011;40313;50.308;30.374;2022-09-04T15:34:28;3.33;;;2.38;;
54406;SDS011;40313;50.308;30.374;2022-09-04T15:37:07;6.68;;;1.65;;
54406;SDS011;40313;50.308;30.374;2022-09-04T15:39:37;5.50;;;1.30;;
54406;SDS011;40313;50.308;30.374;2022-09-04T15:42:13;6.00;;;1.50;;
54406;SDS011;40313;50.308;30.374;2022-09-04T15:44:59;3.38;;;1.10;;
54406;SDS011;40313;50.308;30.374;2022-09-04T15:47:44;3.65;;;1.48;;
54406;SDS011;40313;50.308;30.374;2022-09-04T15:50:23;5.13;;;1.48;;
54406;SDS011;40313;50.308;30.374;2022-09-04T15:52:54;2.03;;;1.25;;
54406;SDS011;40313;50.308;30.374;2022-09-04T15:55:26;2.85;;;2.53;;
54406;SDS011;40313;50.308;30.374;2022-09-04T15:57:58;6.28;;;3.35;;
54406;SDS011;40313;50.308;30.374;2022-09-04T16:00:29;5.07;;;1.80;;
54406;SDS011;40313;50.308;30.374;2022-09-04T16:03:01;3.15;;;2.53;;
54406;SDS011;40313;50.308;30.374;2022-09-04T16:05:40;6.47;;;1.70;;
54406;SDS011;40313;50.308;30.374;2022-09-04T16:08:14;4.22;;;1.35;;
54406;SDS011;40313;50.308;30.374;2022-09-04T16:10:52;2.22;;;1.83;;
54406;SDS011;40313;50.308;30.374;2022-09-04T16:16:11;6.13;;;2.25;;
54406;SDS011;40313;50.308;30.374;2022-09-04T16:18:46;3.28;;;2.10;;
54406;SDS011;40313;50.308;30.374;2022-09-04T16:21:19;3.08;;;2.83;;
54406;SDS011;40313;50.308;30.374;2022-09-04T16:23:51;6.20;;;2.65;;
54406;SDS011;40313;50.308;30.374;2022-09-04T16:26:23;6.20;;;2.88;;
54406;SDS011;40313;50.308;30.374;2022-09-04T16:28:56;7.82;;;2.35;;
54406;SDS011;40313;50.308;30.374;2022-09-04T16:31:27;6.38;;;2.08;;
54406;SDS011;40313;50.308;30.374;2022-09-04T16:33:59;6.18;;;2.63;;
54406;SDS011;40313;50.308;30.374;2022-09-04T16:36:30;11.20;;;2.70;;
54406;SDS011;40313;50.308;30.374;2022-09-04T16:39:04;20.95;;;3.35;;
54406;SDS011;40313;50.308;30.374;2022-09-04T16:41:39;10.65;;;3.58;;
54406;SDS011;40313;50.308;30.374;2022-09-04T16:44:17;4.75;;;3.38;;
54406;SDS011;40313;50.308;30.374;2022-09-04T16:46:48;28.13;;;4.20;;
54406;SDS011;40313;50.308;30.374;2022-09-04T16:49:32;6.50;;;3.65;;
54406;SDS011;40313;50.308;30.374;2022-09-04T16:55:02;19.42;;;4.55;;
54406;SDS011;40313;50.308;30.374;2022-09-04T16:57:36;34.28;;;5.55;;
54406;SDS011;40313;50.308;30.374;2022-09-04T17:00:09;24.98;;;4.30;;
54406;SDS011;40313;50.308;30.374;2022-09-04T17:02:41;23.45;;;4.75;;
54406;SDS011;40313;50.308;30.374;2022-09-04T17:05:18;50.17;;;11.45;;
54406;SDS011;40313;50.308;30.374;2022-09-04T17:07:52;82.78;;;17.73;;
54406;SDS011;40313;50.308;30.374;2022-09-04T17:10:30;28.95;;;7.25;;
54406;SDS011;40313;50.308;30.374;2022-09-04T17:13:02;19.23;;;5.55;;
54406;SDS011;40313;50.308;30.374;2022-09-04T17:15:39;16.52;;;4.18;;
54406;SDS011;40313;50.308;30.374;2022-09-04T17:18:13;12.00;;;4.88;;
54406;SDS011;40313;50.308;30.374;2022-09-04T17:20:50;15.95;;;6.32;;
54406;SDS011;40313;50.308;30.374;2022-09-04T17:23:23;23.63;;;5.70;;
54406;SDS011;40313;50.308;30.374;2022-09-04T17:25:55;14.20;;;6.22;;
54406;SDS011;40313;50.308;30.374;2022-09-04T17:28:30;29.92;;;6.47;;
54406;SDS011;40313;50.308;30.374;2022-09-04T17:31:07;26.05;;;6.70;;
54406;SDS011;40313;50.308;30.374;2022-09-04T17:33:43;25.42;;;5.20;;
54406;SDS011;40313;50.308;30.374;2022-09-04T17:36:19;21.90;;;4.57;;
54406;SDS011;40313;50.308;30.374;2022-09-04T17:38:53;13.15;;;3.97;;
54406;SDS011;40313;50.308;30.374;2022-09-04T17:41:27;11.57;;;4.38;;
54406;SDS011;40313;50.308;30.374;2022-09-04T17:44:02;17.80;;;3.45;;